Time;durP1;ratioP1;P1;durP2;ratioP2;P2;SDS_P1;SDS_P2;PMS_P1;PMS_P2;Temp;Humidity;BMP_temperature;BMP_pressure;BME280_temperature;BME280_humidity;BME280_pressure;Samples;Min_cycle;Max_cycle;Signal;HPM_P1;HPM_P2
2023/01/09 00:02:01;;;;;;;18.73;11.30;;;;;;;-0.37;100.00;60274.75;6295970;28;20363;-68
2023/01/09 00:05:03;;;;;;;21.43;11.93;;;;;;;-0.34;100.00;60274.75;6294746;28;20221;-69
2023/01/09 00:08:06;;;;;;;19.97;11.70;;;;;;;-144.22;100.00;60274.75;6291293;28;20320;-68
2023/01/09 00:11:09;;;;;;;18.03;11.90;;;;;;;-144.22;100.00;60274.75;6288981;28;20590;-69
2023/01/09 00:14:11;;;;;;;22.43;11.77;;;;;;;-144.22;100.00;60274.75;6272234;28;20239;-69
2023/01/09 00:17:13;;;;;;;21.60;12.27;;;;;;;0.98;100.00;60274.75;6261587;28;20234;-69
2023/01/09 00:20:15;;;;;;;19.40;11.90;;;;;;;-144.22;100.00;60274.75;6271242;28;20725;-69
2023/01/09 00:23:17;;;;;;;19.13;12.10;;;;;;;-144.22;100.00;60274.75;6291018;28;20245;-69
2023/01/09 00:26:20;;;;;;;17.33;10.13;;;;;;;-144.22;100.00;60274.75;6290167;28;20802;-69
2023/01/09 00:29:22;;;;;;;19.63;11.57;;;;;;;-144.22;100.00;60274.75;6272325;28;20321;-69
2023/01/09 00:32:25;;;;;;;17.00;10.97;;;;;;;-144.22;100.00;60274.75;6288762;28;20235;-69
2023/01/09 00:35:27;;;;;;;19.67;11.97;;;;;;;-144.22;100.00;60274.75;6273178;28;20267;-69
2023/01/09 00:38:30;;;;;;;21.13;13.60;;;;;;;-144.22;100.00;60274.75;6279405;28;20686;-69
2023/01/09 00:41:47;;;;;;;23.57;14.57;;;;;;;-144.22;100.00;60274.75;6290658;28;20709;-69
2023/01/09 00:44:53;;;;;;;22.53;14.87;;;;;;;-144.22;100.00;60274.75;6291542;28;20234;-69
2023/01/09 00:48:06;;;;;;;22.77;13.57;;;;;;;-144.22;100.00;60274.75;6288725;28;20241;-69
2023/01/09 00:51:08;;;;;;;22.20;13.43;;;;;;;-144.22;100.00;60274.75;6288011;28;20679;-69
2023/01/09 00:54:13;;;;;;;25.37;14.93;;;;;;;188.01;100.00;60274.75;6289869;28;20645;-68
2023/01/09 00:57:15;;;;;;;21.57;12.90;;;;;;;-144.22;100.00;60274.75;6276565;28;20229;-69
2023/01/09 01:00:18;;;;;;;23.37;13.60;;;;;;;0.98;100.00;60274.75;6270439;28;20226;-69
2023/01/09 01:03:20;;;;;;;22.17;12.43;;;;;;;-144.22;100.00;60274.75;6288731;28;20729;-69
2023/01/09 01:09:43;;;;;;;23.70;13.90;;;;;;;0.98;100.00;60274.75;6288469;28;20239;-68
2023/01/09 01:12:46;;;;;;;22.13;13.20;;;;;;;-144.22;100.00;60274.75;6288859;28;20226;-69
2023/01/09 01:15:48;;;;;;;21.10;12.60;;;;;;;0.98;100.00;60274.75;6264986;28;20466;-69
2023/01/09 01:18:50;;;;;;;21.90;12.73;;;;;;;-144.22;100.00;60274.75;6286785;28;20245;-69
2023/01/09 01:21:52;;;;;;;25.10;14.10;;;;;;;-144.22;100.00;60274.75;6273667;28;20233;-68
2023/01/09 01:24:54;;;;;;;23.33;13.63;;;;;;;-144.22;100.00;60274.75;6289802;28;20244;-69
2023/01/09 01:27:56;;;;;;;28.77;14.90;;;;;;;-144.22;100.00;60274.75;6259585;28;20241;-68
2023/01/09 01:30:59;;;;;;;25.93;14.57;;;;;;;-144.22;100.00;60274.75;6265357;28;20677;-69
2023/01/09 01:34:01;;;;;;;18.40;12.70;;;;;;;-144.22;100.00;60274.75;6264181;28;20237;-69
2023/01/09 01:37:03;;;;;;;27.60;16.27;;;;;;;-144.22;100.00;60274.75;6262564;28;20642;-69
2023/01/09 01:40:07;;;;;;;28.07;16.20;;;;;;;-144.22;100.00;60274.75;6262158;28;20571;-69
2023/01/09 01:43:11;;;;;;;30.60;16.77;;;;;;;-144.22;100.00;60274.75;6260848;28;20330;-68
2023/01/09 01:46:16;;;;;;;26.97;15.47;;;;;;;-144.22;100.00;60274.75;6263472;28;20233;-69
2023/01/09 01:49:19;;;;;;;26.70;16.90;;;;;;;-144.22;100.00;60274.75;6265586;28;20322;-69
2023/01/09 01:52:22;;;;;;;27.50;15.70;;;;;;;-144.22;100.00;60274.75;6280665;28;20281;-67
2023/01/09 01:55:24;;;;;;;27.20;15.63;;;;;;;-144.22;100.00;60274.75;6287628;28;20240;-69
2023/01/09 01:58:27;;;;;;;29.30;16.50;;;;;;;-144.22;100.00;60274.75;6268690;28;20231;-69
2023/01/09 02:01:30;;;;;;;33.43;18.63;;;;;;;-144.22;100.00;60274.75;6264590;28;20317;-69
2023/01/09 02:04:34;;;;;;;34.83;18.40;;;;;;;-144.22;100.00;60274.75;6268524;28;20707;-69
2023/01/09 02:07:36;;;;;;;35.37;18.70;;;;;;;-144.22;100.00;60274.75;6256721;28;20242;-69
2023/01/09 02:10:39;;;;;;;36.60;19.47;;;;;;;-144.22;100.00;60274.75;6269837;28;20316;-69
2023/01/09 02:13:41;;;;;;;41.57;21.63;;;;;;;-144.22;100.00;60274.75;6276486;28;20227;-69
2023/01/09 02:16:55;;;;;;;39.37;20.33;;;;;;;-144.22;100.00;60274.75;6274989;28;20238;-69
2023/01/09 02:20:19;;;;;;;41.53;21.63;;;;;;;-144.22;100.00;60274.75;6268838;28;20713;-69
2023/01/09 02:23:42;;;;;;;38.27;20.50;;;;;;;-144.22;100.00;60274.75;6269033;28;20696;-69
2023/01/09 02:27:11;;;;;;;36.60;20.47;;;;;;;0.75;100.00;60274.75;6274256;28;20385;-70
2023/01/09 02:30:23;;;;;;;29.47;18.60;;;;;;;0.80;100.00;60274.75;6293126;28;20696;-69
2023/01/09 02:33:30;;;;;;;28.97;17.57;;;;;;;0.86;100.00;60274.75;6281766;28;20607;-70
2023/01/09 02:36:37;;;;;;;30.23;18.87;;;;;;;0.89;100.00;60274.75;6276290;28;20226;-69
2023/01/09 02:39:54;;;;;;;30.43;19.50;;;;;;;0.91;100.00;60274.75;6296546;28;20236;-69
2023/01/09 02:42:58;;;;;;;29.70;17.97;;;;;;;-144.22;100.00;60274.75;6276951;28;20234;-69
2023/01/09 02:46:00;;;;;;;31.57;18.77;;;;;;;-144.22;100.00;60274.75;6278451;28;20233;-69
2023/01/09 02:49:03;;;;;;;29.47;18.70;;;;;;;-144.22;100.00;60274.75;6289039;28;20364;-69
2023/01/09 02:52:33;;;;;;;31.23;18.00;;;;;;;-144.22;100.00;60274.75;6274813;28;20227;-69
2023/01/09 02:55:54;;;;;;;28.00;16.93;;;;;;;-144.22;100.00;60274.75;6273210;28;20463;-69
2023/01/09 02:59:12;;;;;;;23.67;15.30;;;;;;;-144.22;100.00;60274.75;6274913;28;20230;-69
2023/01/09 03:02:33;;;;;;;25.13;16.60;;;;;;;-144.22;100.00;60274.75;6273021;28;20720;-69
2023/01/09 03:06:16;;;;;;;24.07;15.60;;;;;;;-144.22;100.00;60274.75;6296100;28;20217;-69
2023/01/09 03:09:22;;;;;;;25.40;16.73;;;;;;;-144.22;100.00;60274.75;6278179;28;20268;-69
2023/01/09 03:12:27;;;;;;;23.77;15.47;;;;;;;-144.22;100.00;60274.75;6273395;28;20353;-69
2023/01/09 03:15:33;;;;;;;25.77;15.30;;;;;;;-144.22;100.00;60274.75;6260346;28;20232;-69
2023/01/09 03:18:37;;;;;;;26.20;15.67;;;;;;;-144.22;100.00;60274.75;6274106;28;20683;-69
2023/01/09 03:21:41;;;;;;;24.93;15.17;;;;;;;11.36;100.00;60274.75;6262027;28;20686;-69
2023/01/09 03:24:43;;;;;;;22.97;15.63;;;;;;;-144.22;100.00;60274.75;6290574;28;20230;-70
2023/01/09 03:27:45;;;;;;;22.20;14.97;;;;;;;-144.22;100.00;60274.75;6293306;28;20698;-70
2023/01/09 03:30:47;;;;;;;26.23;15.87;;;;;;;3.58;100.00;60274.75;6289953;28;20235;-70
2023/01/09 03:33:49;;;;;;;22.43;14.47;;;;;;;-144.22;100.00;60274.75;6274365;28;20230;-70
2023/01/09 03:36:51;;;;;;;21.37;14.27;;;;;;;-144.22;100.00;60274.75;6290589;28;20356;-69
2023/01/09 03:39:53;;;;;;;23.57;14.50;;;;;;;-144.22;100.00;60274.75;6290219;28;20595;-70
2023/01/09 03:42:55;;;;;;;21.40;13.50;;;;;;;-144.22;100.00;60274.75;6292426;28;20277;-70
2023/01/09 03:45:57;;;;;;;20.20;12.30;;;;;;;-144.22;100.00;60274.75;6291329;28;20254;-70
2023/01/09 03:49:00;;;;;;;19.70;12.63;;;;;;;2.28;100.00;60274.75;6272228;28;20821;-69
2023/01/09 03:52:02;;;;;;;18.20;12.23;;;;;;;2.28;100.00;60274.75;6289506;28;20759;-70
2023/01/09 03:55:04;;;;;;;21.07;13.30;;;;;;;-144.22;100.00;60274.75;6272344;28;20772;-70
2023/01/09 03:58:07;;;;;;;16.07;11.00;;;;;;;-144.22;100.00;60274.75;6293039;28;20309;-70
2023/01/09 04:01:11;;;;;;;16.83;11.50;;;;;;;-144.22;100.00;60274.75;6257667;28;20257;-70
2023/01/09 04:04:13;;;;;;;17.17;11.17;;;;;;;-144.22;100.00;60274.75;6272791;28;20355;-71
2023/01/09 04:07:15;;;;;;;13.30;9.77;;;;;;;3.49;100.00;60274.75;6293642;28;20237;-71
2023/01/09 04:10:17;;;;;;;14.33;10.50;;;;;;;-144.22;100.00;60274.75;6291486;28;20765;-71
2023/01/09 04:13:19;;;;;;;14.23;10.33;;;;;;;-144.22;100.00;60274.75;6291849;28;20316;-71
2023/01/09 04:16:22;;;;;;;14.03;10.33;;;;;;;-144.22;100.00;60274.75;6287818;28;20597;-71
2023/01/09 04:19:24;;;;;;;18.10;10.60;;;;;;;-144.22;100.00;60274.75;6290016;28;20229;-71
2023/01/09 04:22:26;;;;;;;9.93;6.80;;;;;;;-144.22;100.00;60274.75;6254280;28;20324;-71
2023/01/09 04:25:28;;;;;;;13.07;8.83;;;;;;;-144.22;100.00;60274.75;6274737;28;20233;-71
2023/01/09 04:28:30;;;;;;;11.40;8.90;;;;;;;-144.22;100.00;60274.75;6282305;28;20281;-68
2023/01/09 04:31:32;;;;;;;10.20;8.43;;;;;;;-144.22;100.00;60274.75;6311155;27;20630;-70
2023/01/09 04:34:34;;;;;;;8.87;7.20;;;;;;;-144.22;100.00;60274.75;6279260;28;20247;-71
2023/01/09 04:37:36;;;;;;;9.33;6.57;;;;;;;-144.22;100.00;60274.75;6290417;28;20247;-71
2023/01/09 04:40:38;;;;;;;10.43;6.80;;;;;;;-144.22;100.00;60274.75;6272862;28;20778;-72
2023/01/09 04:43:41;;;;;;;10.77;7.13;;;;;;;4.87;100.00;60274.75;6291268;28;20236;-71
2023/01/09 04:46:43;;;;;;;9.47;5.80;;;;;;;4.80;100.00;60274.75;6292557;28;20724;-71
2023/01/09 04:49:45;;;;;;;6.57;5.27;;;;;;;-144.22;100.00;60274.75;6255966;28;20253;-71
2023/01/09 04:52:47;;;;;;;8.37;5.50;;;;;;;-144.22;100.00;60274.75;6272750;28;20231;-71
2023/01/09 04:55:49;;;;;;;6.63;5.27;;;;;;;-144.22;100.00;60274.75;6295855;28;20645;-71
2023/01/09 04:58:51;;;;;;;7.00;4.93;;;;;;;-144.22;100.00;60274.75;6293587;28;20225;-71
2023/01/09 05:01:54;;;;;;;5.13;4.43;;;;;;;-144.22;100.00;60274.75;6292499;28;20227;-72
2023/01/09 05:04:57;;;;;;;5.20;4.13;;;;;;;-144.22;100.00;60274.75;6279955;28;20692;-71
2023/01/09 05:07:59;;;;;;;5.93;4.27;;;;;;;-144.22;100.00;60274.75;6271559;28;20289;-71
2023/01/09 05:11:01;;;;;;;4.80;4.00;;;;;;;-144.22;100.00;60274.75;6290218;28;20224;-71
2023/01/09 05:14:03;;;;;;;5.33;4.20;;;;;;;-144.22;100.00;60274.75;6272526;28;20222;-71
2023/01/09 05:17:05;;;;;;;7.03;4.60;;;;;;;-144.22;100.00;60274.75;6273300;28;20227;-71
2023/01/09 05:20:07;;;;;;;5.20;3.90;;;;;;;-144.22;100.00;60274.75;6271637;28;20368;-71
2023/01/09 05:23:09;;;;;;;4.97;3.97;;;;;;;-144.22;100.00;60274.75;6288663;28;20225;-71
2023/01/09 05:26:12;;;;;;;7.73;4.10;;;;;;;-144.22;100.00;60274.75;6288972;28;20295;-71
2023/01/09 05:29:14;;;;;;;4.57;3.70;;;;;;;-144.22;100.00;60274.75;6271894;28;20734;-71
2023/01/09 05:32:16;;;;;;;4.03;3.20;;;;;;;-144.22;100.00;60274.75;6272344;28;20265;-71
2023/01/09 05:35:19;;;;;;;6.13;3.70;;;;;;;188.01;100.00;60274.75;6292484;28;20230;-71
2023/01/09 05:38:21;;;;;;;5.63;3.30;;;;;;;-144.22;100.00;60274.75;6274838;28;20311;-70
2023/01/09 05:41:25;;;;;;;4.90;3.40;;;;;;;5.31;100.00;60274.75;6291388;28;20232;-71
2023/01/09 05:44:27;;;;;;;3.40;3.10;;;;;;;5.60;100.00;78567.00;6290689;28;20238;-71
2023/01/09 05:47:29;;;;;;;3.13;2.73;;;;;;;-144.22;100.00;60274.75;6290366;28;20235;-72
2023/01/09 05:50:31;;;;;;;4.07;2.60;;;;;;;-144.22;100.00;60274.75;6293073;28;20836;-71
2023/01/09 05:53:33;;;;;;;3.03;2.50;;;;;;;5.85;100.00;60274.75;6290027;28;20593;-72
2023/01/09 05:56:35;;;;;;;2.50;2.30;;;;;;;5.92;100.00;60274.75;6289644;28;20238;-72
2023/01/09 05:59:37;;;;;;;3.90;2.50;;;;;;;5.90;100.00;103558.78;6257670;28;20308;-72
2023/01/09 06:02:39;;;;;;;5.13;2.30;;;;;;;6.11;100.00;60274.75;6253477;28;20233;-71
2023/01/09 06:05:41;;;;;;;4.10;2.30;;;;;;;8.77;100.00;60274.75;6293264;28;20240;-72
2023/01/09 06:08:43;;;;;;;2.93;2.27;;;;;;;-144.22;100.00;60274.75;6291063;28;20231;-71
2023/01/09 06:11:45;;;;;;;2.40;2.00;;;;;;;-144.22;100.00;60274.75;6258258;28;20707;-71
2023/01/09 06:14:47;;;;;;;2.37;2.00;;;;;;;6.32;100.00;60274.75;6289817;28;20227;-71
2023/01/09 06:17:49;;;;;;;2.83;2.43;;;;;;;-144.22;100.00;60274.75;6277116;28;20721;-71
2023/01/09 06:20:51;;;;;;;1.97;1.77;;;;;;;6.51;100.00;78654.16;6288563;28;20237;-71
2023/01/09 06:23:53;;;;;;;2.10;1.73;;;;;;;-144.22;100.00;60274.75;6289074;28;20230;-72
2023/01/09 06:26:55;;;;;;;2.60;2.00;;;;;;;6.44;100.00;60274.75;6272676;28;20625;-72
2023/01/09 06:29:57;;;;;;;2.03;1.57;;;;;;;-144.22;100.00;60274.75;6287935;28;20226;-71
2023/01/09 06:32:59;;;;;;;2.87;1.70;;;;;;;6.36;100.00;60274.75;6271107;28;20239;-71
2023/01/09 06:36:01;;;;;;;1.87;1.60;;;;;;;-144.22;100.00;60274.75;6270618;28;20346;-71
2023/01/09 06:39:03;;;;;;;2.47;2.00;;;;;;;6.40;100.00;60274.75;6287681;28;20218;-71
2023/01/09 06:42:05;;;;;;;1.83;1.40;;;;;;;-144.22;100.00;60274.75;6271821;28;20268;-71
2023/01/09 06:45:08;;;;;;;1.97;1.63;;;;;;;6.43;100.00;60274.75;6289138;28;20886;-70
2023/01/09 06:48:11;;;;;;;1.87;1.50;;;;;;;-144.22;100.00;60274.75;6286376;28;20229;-72
2023/01/09 06:51:13;;;;;;;2.03;1.83;;;;;;;6.32;100.00;60274.75;6268446;28;20299;-71
2023/01/09 06:54:15;;;;;;;2.83;1.50;;;;;;;-144.22;100.00;60274.75;6290955;28;20221;-71
2023/01/09 06:57:17;;;;;;;2.80;1.37;;;;;;;6.12;100.00;60274.75;6290388;28;20220;-71
2023/01/09 07:00:20;;;;;;;2.03;1.20;;;;;;;6.09;100.00;60274.75;6275339;28;20243;-71
2023/01/09 07:03:22;;;;;;;2.20;1.70;;;;;;;6.07;100.00;78553.06;6290937;28;20229;-71
2023/01/09 07:06:25;;;;;;;1.53;1.37;;;;;;;6.04;100.00;60274.75;6279733;28;20599;-71
2023/01/09 07:09:27;;;;;;;2.87;1.53;;;;;;;6.02;100.00;60274.75;6292761;28;20655;-71
2023/01/09 07:12:29;;;;;;;1.70;1.60;;;;;;;-144.22;100.00;60274.75;6292309;28;20590;-71
2023/01/09 07:15:31;;;;;;;2.03;1.30;;;;;;;5.95;100.00;60274.75;6315254;27;20222;-68
2023/01/09 07:18:33;;;;;;;1.50;1.40;;;;;;;-144.22;100.00;60274.75;6273464;28;20746;-71
2023/01/09 07:21:35;;;;;;;3.37;1.40;;;;;;;-144.22;100.00;60274.75;6271658;28;20240;-71
2023/01/09 07:24:37;;;;;;;2.47;1.33;;;;;;;-144.22;100.00;60274.75;6286167;28;20606;-72
2023/01/09 07:27:39;;;;;;;1.77;1.30;;;;;;;-144.22;100.00;60274.75;6291534;28;20276;-70
2023/01/09 07:30:42;;;;;;;3.53;1.40;;;;;;;-144.22;100.00;60274.75;6295490;28;20279;-71
2023/01/09 07:33:44;;;;;;;2.47;1.30;;;;;;;-144.22;100.00;60274.75;6291410;28;20589;-71
2023/01/09 07:36:47;;;;;;;1.83;1.30;;;;;;;-144.22;100.00;60274.75;6294659;28;20719;-71
2023/01/09 07:39:49;;;;;;;1.50;1.40;;;;;;;-144.22;100.00;60274.75;6279922;28;20898;-71
2023/01/09 07:42:52;;;;;;;1.47;1.30;;;;;;;6.02;100.00;79255.00;6276662;28;20265;-71
2023/01/09 07:45:54;;;;;;;1.43;1.33;;;;;;;-144.22;100.00;60274.75;6276760;28;20386;-71
2023/01/09 07:48:56;;;;;;;2.10;1.30;;;;;;;-144.22;100.00;60274.75;6286812;28;20331;-71
2023/01/09 07:51:58;;;;;;;1.43;1.23;;;;;;;5.85;100.00;60274.75;6274862;28;20320;-71
2023/01/09 07:55:00;;;;;;;1.80;1.30;;;;;;;5.55;100.00;60274.75;6276254;28;20656;-71
2023/01/09 07:58:02;;;;;;;2.83;1.27;;;;;;;-144.22;100.00;60274.75;6278038;28;20504;-72
2023/01/09 08:01:04;;;;;;;1.70;1.60;;;;;;;5.45;100.00;60274.75;6273846;28;20243;-72
2023/01/09 08:04:06;;;;;;;2.57;2.37;;;;;;;-144.22;100.00;60274.75;6258909;28;20232;-71
2023/01/09 08:07:08;;;;;;;1.60;1.50;;;;;;;5.45;100.00;60274.75;6271081;28;20338;-71
2023/01/09 08:10:11;;;;;;;2.40;1.47;;;;;;;-144.22;100.00;60274.75;6290049;28;20360;-71
2023/01/09 08:13:13;;;;;;;4.43;1.90;;;;;;;5.45;100.00;60274.75;6271383;28;20414;-71
2023/01/09 08:16:15;;;;;;;1.90;1.70;;;;;;;-144.22;100.00;60274.75;6288781;28;20237;-71
2023/01/09 08:19:17;;;;;;;2.20;1.67;;;;;;;5.45;100.00;60274.75;6290644;28;20239;-71
2023/01/09 08:22:19;;;;;;;2.00;1.80;;;;;;;-144.22;100.00;60274.75;6262280;28;20700;-71
2023/01/09 08:25:22;;;;;;;2.03;1.80;;;;;;;5.45;100.00;60274.75;6292791;28;20369;-71
2023/01/09 08:28:24;;;;;;;1.57;1.47;;;;;;;-144.22;100.00;60274.75;6277901;28;20326;-71
2023/01/09 08:31:26;;;;;;;2.23;1.63;;;;;;;5.45;100.00;60274.75;6278238;28;20240;-71
2023/01/09 08:34:29;;;;;;;1.73;1.63;;;;;;;5.72;100.00;60274.75;6290938;28;20268;-71
2023/01/09 08:37:31;;;;;;;2.00;1.73;;;;;;;5.66;100.00;60274.75;6281183;28;20229;-72
2023/01/09 08:40:33;;;;;;;2.67;1.43;;;;;;;5.84;100.00;60274.75;6257029;28;20627;-71
2023/01/09 08:47:05;;;;;;;2.93;2.10;;;;;;;5.80;100.00;60274.75;6286447;28;20371;-72
2023/01/09 08:50:08;;;;;;;2.10;1.83;;;;;;;6.17;100.00;60274.75;6289203;28;20286;-72
2023/01/09 08:53:10;;;;;;;2.57;2.27;;;;;;;5.69;100.00;60274.75;6294355;28;20232;-71
2023/01/09 08:56:13;;;;;;;2.97;2.50;;;;;;;11.36;100.00;60274.75;6285943;28;20601;-71
2023/01/09 08:59:15;;;;;;;2.70;2.17;;;;;;;5.80;100.00;60274.75;6290488;28;20340;-71
2023/01/09 09:02:17;;;;;;;2.13;1.60;;;;;;;5.91;100.00;60274.75;6291390;28;20293;-72
2023/01/09 09:05:20;;;;;;;2.97;1.60;;;;;;;6.07;100.00;60274.75;6291082;28;20235;-71
2023/01/09 09:08:23;;;;;;;2.77;1.77;;;;;;;6.49;100.00;60274.75;6290387;28;20233;-71
2023/01/09 09:11:25;;;;;;;2.33;1.50;;;;;;;6.40;100.00;60274.75;6270927;28;20228;-72
2023/01/09 09:18:08;;;;;;;1.70;1.33;;;;;;;6.54;100.00;78617.41;6291259;28;20262;-71
2023/01/09 09:21:10;;;;;;;1.73;1.30;;;;;;;6.55;100.00;78741.41;6287347;28;20340;-71
2023/01/09 09:24:12;;;;;;;1.50;1.40;;;;;;;6.46;100.00;60274.75;6290885;28;20228;-70
2023/01/09 09:27:14;;;;;;;1.80;1.30;;;;;;;6.38;100.00;60274.75;6288711;28;20328;-71
2023/01/09 09:30:18;;;;;;;2.30;1.80;;;;;;;6.30;100.00;60274.75;6271953;28;20521;-70
2023/01/09 09:33:20;;;;;;;2.10;1.80;;;;;;;6.26;100.00;78916.06;6272519;28;20632;-70
2023/01/09 09:36:22;;;;;;;1.97;1.77;;;;;;;6.49;100.00;60274.75;6290769;28;20315;-71
2023/01/09 09:39:24;;;;;;;2.23;1.67;;;;;;;6.19;100.00;60274.75;6286276;28;20225;-70
2023/01/09 09:46:36;;;;;;;1.37;1.23;;;;;;;21.74;100.00;60274.75;6289325;28;20285;-70
2023/01/09 09:50:05;;;;;;;1.50;1.40;;;;;;;-144.22;100.00;60274.75;6278375;28;20237;-70
2023/01/09 09:53:10;;;;;;;1.37;1.27;;;;;;;-144.22;100.00;60274.75;6281630;28;20733;-70
2023/01/09 09:56:17;;;;;;;2.03;1.83;;;;;;;-144.22;100.00;60274.75;6282070;28;20444;-70
2023/01/09 09:59:32;;;;;;;2.10;1.90;;;;;;;5.91;100.00;60274.75;6271107;28;20732;-70
2023/01/09 10:03:00;;;;;;;2.90;1.37;;;;;;;5.86;100.00;60274.75;6286414;28;20249;-70
2023/01/09 10:06:08;;;;;;;1.50;1.20;;;;;;;-144.22;100.00;60274.75;6290514;28;20218;-70
2023/01/09 10:09:19;;;;;;;1.47;1.10;;;;;;;6.17;100.00;60274.75;6286278;28;20371;-71
2023/01/09 10:12:30;;;;;;;1.00;0.90;;;;;;;5.77;100.00;60274.75;6288280;28;20244;-71
2023/01/09 10:15:43;;;;;;;1.00;1.00;;;;;;;-144.22;100.00;60274.75;6274140;28;20721;-69
2023/01/09 10:19:24;;;;;;;4.10;0.90;;;;;;;5.79;100.00;60274.75;6289334;28;20591;-70
2023/01/09 10:22:34;;;;;;;0.77;0.60;;;;;;;5.73;100.00;60274.75;6289855;28;20284;-70
2023/01/09 10:26:01;;;;;;;0.67;0.60;;;;;;;5.73;100.00;60274.75;6288739;28;20270;-70
2023/01/09 10:29:24;;;;;;;0.80;0.80;;;;;;;5.65;100.00;60274.75;6287719;28;20331;-70
2023/01/09 10:32:55;;;;;;;0.60;0.50;;;;;;;-144.22;100.00;60274.75;6281034;28;20699;-70
2023/01/09 10:36:21;;;;;;;1.20;0.60;;;;;;;-144.22;100.00;60274.75;6255364;28;20318;-70
2023/01/09 10:39:34;;;;;;;0.70;0.50;;;;;;;5.54;100.00;60274.75;6281306;28;20225;-71
2023/01/09 10:42:43;;;;;;;0.67;0.40;;;;;;;5.56;100.00;60274.75;6275756;28;20710;-68
2023/01/09 10:45:55;;;;;;;0.60;0.40;;;;;;;5.55;100.00;60274.75;6291739;28;20222;-71
2023/01/09 10:49:05;;;;;;;0.30;0.30;;;;;;;5.57;100.00;60274.75;6292327;28;20320;-71
2023/01/09 10:52:19;;;;;;;0.40;0.30;;;;;;;-144.22;100.00;60274.75;6293536;28;20233;-71
2023/01/09 10:55:32;;;;;;;1.23;0.40;;;;;;;5.74;100.00;60274.75;6292501;28;20741;-71
2023/01/09 10:58:34;;;;;;;0.30;0.30;;;;;;;6.15;100.00;60274.75;6292870;28;20662;-70
2023/01/09 11:01:38;;;;;;;0.30;0.27;;;;;;;11.36;100.00;60274.75;6277098;28;20322;-71
2023/01/09 11:04:42;;;;;;;0.20;0.20;;;;;;;6.13;100.00;60274.75;6279052;28;20235;-71
2023/01/09 11:07:49;;;;;;;0.30;0.27;;;;;;;6.33;100.00;60274.75;6279630;28;20216;-71
2023/01/09 11:10:54;;;;;;;0.20;0.20;;;;;;;6.35;100.00;60274.75;6275157;28;20566;-70
2023/01/09 11:14:05;;;;;;;0.40;0.23;;;;;;;6.46;100.00;78607.88;6292915;28;20237;-71
2023/01/09 11:17:19;;;;;;;0.30;0.30;;;;;;;-144.22;100.00;60274.75;6290393;28;20614;-72
2023/01/09 11:20:27;;;;;;;0.20;0.20;;;;;;;6.52;100.00;60274.75;6274890;28;20238;-71
2023/01/09 11:23:31;;;;;;;0.10;0.10;;;;;;;-144.22;100.00;60274.75;6292061;28;20360;-72
2023/01/09 11:26:34;;;;;;;0.30;0.10;;;;;;;6.59;100.00;78623.84;6291866;28;20630;-72
2023/01/09 11:29:36;;;;;;;0.10;0.10;;;;;;;-144.22;100.00;60274.75;6257003;28;20229;-72
2023/01/09 11:32:38;;;;;;;0.20;0.20;;;;;;;-144.22;100.00;60274.75;6292729;28;20649;-72
2023/01/09 11:35:56;;;;;;;0.20;0.20;;;;;;;6.47;100.00;60274.75;6254384;28;20312;-71
2023/01/09 11:39:01;;;;;;;0.10;0.10;;;;;;;6.47;100.00;96436.53;6288759;28;20666;-71
2023/01/09 11:42:05;;;;;;;0.27;0.20;;;;;;;-144.22;100.00;60274.75;6273066;28;20613;-71
2023/01/09 11:45:31;;;;;;;0.10;0.10;;;;;;;-144.22;100.00;60274.75;6278061;28;20312;-72
2023/01/09 11:48:53;;;;;;;0.30;0.20;;;;;;;6.47;100.00;60274.75;6290971;28;20232;-71
2023/01/09 11:52:21;;;;;;;0.03;0.03;;;;;;;-144.22;100.00;60274.75;6278568;28;20320;-71
2023/01/09 11:55:23;;;;;;;0.13;0.10;;;;;;;-144.22;100.00;60274.75;6290707;28;20363;-71
2023/01/09 11:58:34;;;;;;;0.20;0.20;;;;;;;-144.22;100.00;60274.75;6274948;28;20293;-71
2023/01/09 12:01:48;;;;;;;0.60;0.10;;;;;;;6.47;100.00;60274.75;6274405;28;20233;-71
2023/01/09 12:04:57;;;;;;;0.47;0.10;;;;;;;6.47;100.00;60274.75;6295283;28;20221;-71
2023/01/09 12:08:01;;;;;;;0.20;0.20;;;;;;;-144.22;100.00;60274.75;6292007;28;20236;-71
2023/01/09 12:11:17;;;;;;;0.20;0.20;;;;;;;6.64;100.00;78630.69;6290377;28;20217;-72
2023/01/09 12:14:41;;;;;;;0.20;0.20;;;;;;;-144.22;100.00;60274.75;6294337;28;20411;-71
2023/01/09 12:18:22;;;;;;;0.17;0.17;;;;;;;6.73;100.00;78641.56;6291504;28;20342;-71
2023/01/09 12:21:31;;;;;;;0.20;0.20;;;;;;;-144.22;100.00;60274.75;6289781;28;20233;-71
2023/01/09 12:25:07;;;;;;;0.30;0.30;;;;;;;-144.22;100.00;60274.75;6289079;28;20237;-69
2023/01/09 12:28:38;;;;;;;0.23;0.23;;;;;;;6.65;100.00;78631.38;6293376;28;20241;-71
2023/01/09 12:32:02;;;;;;;0.40;0.30;;;;;;;-144.22;100.00;60274.75;6256848;28;20229;-71
2023/01/09 12:35:21;;;;;;;0.60;0.20;;;;;;;6.66;100.00;78633.06;6290783;28;20325;-71
2023/01/09 12:38:42;;;;;;;0.20;0.20;;;;;;;-144.22;100.00;60274.75;6293739;28;20292;-72
2023/01/09 12:41:59;;;;;;;0.10;0.10;;;;;;;-144.22;100.00;60274.75;6293532;28;20354;-71
2023/01/09 12:45:26;;;;;;;0.47;0.20;;;;;;;6.59;100.00;78623.16;6288130;28;20308;-70
2023/01/09 12:49:03;;;;;;;0.30;0.30;;;;;;;-144.22;100.00;60274.75;6290485;28;20878;-71
2023/01/09 12:52:16;;;;;;;0.53;0.27;;;;;;;-144.22;100.00;60274.75;6279136;28;20698;-71
2023/01/09 12:55:23;;;;;;;0.10;0.10;;;;;;;6.51;100.00;60274.75;6289496;28;20234;-71
2023/01/09 12:58:38;;;;;;;0.60;0.27;;;;;;;-144.22;100.00;60274.75;6289944;28;20229;-70
2023/01/09 13:01:48;;;;;;;1.07;0.30;;;;;;;-144.22;100.00;60274.75;6290433;28;20249;-70
2023/01/09 13:05:00;;;;;;;0.30;0.30;;;;;;;6.82;100.00;60274.75;6293653;28;20218;-70
2023/01/09 13:08:08;;;;;;;0.20;0.20;;;;;;;-144.22;100.00;60274.75;6289415;28;20303;-70
2023/01/09 13:11:46;;;;;;;0.60;0.40;;;;;;;-144.22;100.00;60274.75;6276926;28;20240;-71
2023/01/09 13:14:58;;;;;;;1.40;0.40;;;;;;;6.34;100.00;60274.75;6283229;28;20314;-71
2023/01/09 13:18:21;;;;;;;0.40;0.40;;;;;;;-144.22;100.00;60274.75;6289920;28;20237;-69
2023/01/09 13:21:25;;;;;;;0.30;0.30;;;;;;;-144.22;100.00;60274.75;6289496;28;20597;-71
2023/01/09 13:24:37;;;;;;;1.10;0.40;;;;;;;6.27;100.00;60274.75;6288703;28;20599;-71
2023/01/09 13:27:44;;;;;;;0.50;0.50;;;;;;;-144.22;100.00;60274.75;6289588;28;20330;-70
2023/01/09 13:31:04;;;;;;;0.70;0.40;;;;;;;6.27;100.00;60274.75;6273778;28;20232;-71
2023/01/09 13:34:17;;;;;;;0.70;0.60;;;;;;;-144.22;100.00;60274.75;6289069;28;20347;-70
2023/01/09 13:37:32;;;;;;;0.80;0.60;;;;;;;6.14;100.00;60274.75;6272392;28;20267;-71
2023/01/09 13:40:34;;;;;;;0.77;0.70;;;;;;;6.06;100.00;60274.75;6287757;28;20234;-70
2023/01/09 13:43:55;;;;;;;0.80;0.80;;;;;;;-144.22;100.00;60274.75;6270343;28;20233;-70
2023/01/09 13:47:01;;;;;;;0.90;0.90;;;;;;;6.08;100.00;60274.75;6287790;28;20309;-70
2023/01/09 13:50:05;;;;;;;1.23;0.90;;;;;;;-144.22;100.00;60274.75;6289602;28;20660;-71
2023/01/09 13:53:16;;;;;;;1.67;0.90;;;;;;;6.08;100.00;60274.75;6288161;28;20318;-70
2023/01/09 13:56:19;;;;;;;0.87;0.87;;;;;;;6.17;100.00;60274.75;6288958;28;20233;-70
2023/01/09 13:59:26;;;;;;;1.10;1.00;;;;;;;-144.22;100.00;60274.75;6288358;28;20224;-70
2023/01/09 14:02:34;;;;;;;0.87;0.80;;;;;;;11.36;100.00;60274.75;6288844;28;20241;-71
2023/01/09 14:05:36;;;;;;;0.83;0.77;;;;;;;-144.22;100.00;60274.75;6284246;28;20730;-70
2023/01/09 14:08:40;;;;;;;1.87;1.10;;;;;;;-144.22;100.00;60274.75;6279356;28;20559;-70
2023/01/09 14:11:43;;;;;;;1.70;0.70;;;;;;;5.84;100.00;60274.75;6282223;28;20264;-70
2023/01/09 14:14:45;;;;;;;0.93;0.67;;;;;;;5.85;100.00;60274.75;6296649;28;20482;-71
2023/01/09 14:17:48;;;;;;;1.97;0.57;;;;;;;-144.22;100.00;60274.75;6281635;28;20323;-70
2023/01/09 14:21:01;;;;;;;1.90;0.80;;;;;;;-144.22;100.00;60274.75;6298138;28;20267;-70
2023/01/09 14:24:05;;;;;;;0.70;0.70;;;;;;;-144.22;100.00;60274.75;6291112;28;20705;-70
2023/01/09 14:27:46;;;;;;;0.73;0.60;;;;;;;-144.22;100.00;60274.75;6299426;28;20878;-69
2023/01/09 14:30:51;;;;;;;1.87;0.60;;;;;;;-144.22;100.00;60274.75;6296178;28;20311;-70